Flight Track Log - Related Links

Times and Time Zones

All times are in EST time to prevent confusion due to time zone crossing. See the N6ZQ flight status page for this flight to view local times or setup timezone preferences in your user account.

Time Position Orientation Groundspeed Altitude Reporting Facility
EST Latitude Longitude Course Direction KTS MPH feet Rate Location/Type
Mon 09:38:54 AM 30.1450 -82.5539 165° South 207 238 1,500  Level Jacksonville Center
Mon 09:39:00 AM 29.9576 -82.5816 165° South  Level Estimated
Mon 09:39:54 AM 30.0969 -82.5325 159° South 200 230 2,900  Level Jacksonville Center
Mon 09:40:54 AM 30.0489 -82.5086 157° South 194 223 3,800 1,400 Climbing Jacksonville Center
Mon 09:41:24 AM 30.0194 -82.4992 164° South 171 197 5,000 1,500 Climbing Jacksonville Center
Mon 09:41:54 AM 30.0028 -82.4872 148° Southeast 189 217 5,300 1,067 Climbing Jacksonville Center
Mon 09:42:54 AM 29.9589 -82.4658 157° South 189 217 6,600 1,448 Climbing Jacksonville Center
Mon 09:43:50 AM 29.9192 -82.4517 163° South 149 171 8,100 1,400 Climbing Jacksonville Center
Mon 09:43:54 AM 29.9214 -82.4492 44° Northeast 171 197 8,000 689 Descending Jacksonville Center
Mon 09:44:51 AM 29.8711 -82.4278 160° South 186 214 8,800 600 Climbing Jacksonville Center
Mon 09:44:54 AM 29.8753 -82.4278 360° North 171 197 8,600 197 Descending Jacksonville Center
Mon 09:45:52 AM 29.8208 -82.4139 168° South 183 211 9,000 300 Climbing Jacksonville Center
Mon 09:45:54 AM 29.8272 -82.4114 19° North 176 203 8,900  Descending Jacksonville Center
Mon 09:46:53 AM 29.7708 -82.3972 168° South 188 216 9,000  Climbing Jacksonville Center
Mon 09:46:54 AM 29.7750 -82.3972 360° North 182 209 8,900  Descending Jacksonville Center
Mon 09:47:53 AM 29.7186 -82.3831 168° South 186 214 9,000  Climbing Jacksonville Center
Mon 09:47:54 AM 29.7247 -82.3831 360° North 187 215 8,900 -90 Descending Jacksonville Center
Mon 09:49:00 AM 29.6661 -82.3667 166° South 185 213 8,900  Level Jacksonville Center
Mon 09:49:54 AM 29.6267 -82.3550 166° South 187 215 8,900 109 Level Jacksonville Center
Mon 09:49:55 AM 29.6181 -82.3550 180° South 185 213 9,000  Climbing Jacksonville Center
Mon 09:50:54 AM 29.5764 -82.3408 164° South 182 209 8,900  Descending Jacksonville Center
Mon 09:51:02 AM 29.5617 -82.3411 181° South 184 212 9,000 87 Climbing Jacksonville Center
Mon 09:52:03 AM 29.5136 -82.3247 163° South 183 211 9,000  Level Jacksonville Center
Mon 09:52:52 AM 29.4739 -82.3128 165° South 183 211 9,000  Level Jacksonville Center
Mon 09:53:53 AM 29.4239 -82.2964 164° South 181 208 9,000  Level Jacksonville Center
Mon 09:55:06 AM 29.3672 -82.2850 170° South 175 201 9,000  Level Jacksonville Center
Mon 09:56:07 AM 29.3192 -82.2708 166° South 170 196 9,000 -49 Level Jacksonville Center
Mon 09:57:08 AM 29.2733 -82.2544 163° South 173 199 8,900  Descending Jacksonville Center
Mon 09:58:09 AM 29.2211 -82.2406 167° South 177 204 9,000  Climbing Jacksonville Center
Mon 09:59:10 AM 29.1731 -82.2314 171° South 176 203 8,900  Descending Jacksonville Center
Mon 10:00:11 AM 29.1333 -82.2556 208° Southwest 158 182 9,000 -155 Climbing Jacksonville Center
Mon 10:01:06 AM 29.0958 -82.2772 207° Southwest 166 191 8,600 -492 Descending Jacksonville Center
Mon 10:02:13 AM 29.0481 -82.3083 210° Southwest 181 208 8,000 -563 Descending Jacksonville Center
Mon 10:03:14 AM 28.9981 -82.3369 207° Southwest 185 213 7,400 -517 Descending Jacksonville Center
Mon 10:04:09 AM 28.9564 -82.3633 209° Southwest 185 213 7,000 -492 Descending Jacksonville Center
Mon 10:05:16 AM 28.9086 -82.3944 210° Southwest 186 214 6,400 -512 Descending Jacksonville Center
Mon 10:06:18 AM 28.8628 -82.4208 207° Southwest 185 213 5,900 -516 Descending Jacksonville Center
Mon 10:07:24 AM 28.8128 -82.4542 210° Southwest 184 212 5,300 -286 Descending Jacksonville Center
Mon 10:09:27 AM 28.7167 -82.5000 203° Southwest 169 194 5,000 -164 Descending Tampa TRACON
Mon 10:10:27 AM 28.6667 -82.5167 196° South 168 193 4,800 -350 Descending Tampa TRACON
Mon 10:11:27 AM 28.6167 -82.5167 180° South 184 212 4,300 -400 Descending Tampa TRACON
Mon 10:12:27 AM 28.5667 -82.5500 210° Southwest 198 228 4,000 -150 Descending Tampa TRACON
Mon 10:13:27 AM 28.5333 -82.5833 221° Southwest 183 211 4,000  Level Tampa TRACON
Mon 10:14:27 AM 28.5000 -82.6167 221° Southwest 181 208 4,000  Level Tampa TRACON
Mon 10:15:27 AM 28.4500 -82.6500 210° Southwest 181 208 4,000  Level Tampa TRACON
Mon 10:16:27 AM 28.4167 -82.6833 221° Southwest 186 214 4,000  Level Tampa TRACON
Mon 10:17:27 AM 28.3667 -82.7000 196° South 186 214 4,000  Level Tampa TRACON
Mon 10:18:27 AM 28.3167 -82.7333 210° Southwest 193 222 4,000  Level Tampa TRACON
Mon 10:19:28 AM 28.2667 -82.7333 180° South 197 227 4,000  Level Tampa TRACON
Mon 10:20:28 AM 28.2000 -82.7500 192° South 197 227 4,000  Level Tampa TRACON
Mon 10:21:28 AM 28.1500 -82.7500 180° South 197 227 4,000  Level Tampa TRACON
Mon 10:22:33 AM 28.1000 -82.7667 196° South 198 228 4,000  Level Tampa TRACON
Mon 10:23:34 AM 28.0333 -82.7667 180° South 199 229 4,000  Level Tampa TRACON
Mon 10:24:34 AM 27.9833 -82.7667 180° South 200 230 4,000 -50 Level Tampa TRACON
Mon 10:25:34 AM 27.9333 -82.7833 196° South 201 231 3,900 -500 Descending Tampa TRACON
Mon 10:26:34 AM 27.8667 -82.7667 168° South 225 259 3,000 -450 Descending Tampa TRACON
Mon 10:27:34 AM 27.8167 -82.7667 180° South 203 234 3,000  Level Tampa TRACON
Mon 10:28:34 AM 27.7500 -82.7667 180° South 189 217 3,000  Level Tampa TRACON
Mon 10:29:34 AM 27.7000 -82.7667 180° South 186 214 3,000  Level Tampa TRACON
Mon 10:30:34 AM 27.6500 -82.7667 180° South 189 217 3,000  Level Tampa TRACON
Mon 10:31:34 AM 27.6000 -82.7667 180° South 190 219 3,000  Level Tampa TRACON
Mon 10:32:34 AM 27.5667 -82.7167 127° Southeast 182 209 3,000 -100 Level Tampa TRACON
Mon 10:33:34 AM 27.5500 -82.6500 106° East 187 215 2,800 -300 Descending Tampa TRACON
Mon 10:34:34 AM 27.5833 -82.6000 53° Northeast 186 214 2,400 -400 Descending Tampa TRACON
Mon 10:35:34 AM 27.5833 -82.5667 90° East 171 197 2,000 -198 Descending Tampa TRACON
Mon 10:36:35 AM 27.5500 -82.5500 156° South 152 175 2,000  Level Tampa TRACON
Mon 10:37:35 AM 27.5500 -82.5833 270° West 128 147 2,000  Level Tampa TRACON
Mon 10:38:35 AM 27.5833 -82.6000 336° Northwest 128 147 2,000 -100 Level Tampa TRACON
Mon 10:39:35 AM 27.6167 -82.6167 336° Northwest 122 140 1,800 -200 Descending Tampa TRACON
Mon 10:40:35 AM 27.6500 -82.6167 360° North 128 147 1,600 -100 Descending Tampa TRACON
Mon 10:41:35 AM 27.6833 -82.6333 336° Northwest 121 139 1,600 -400 Level Tampa TRACON
Mon 10:42:35 AM 27.7167 -82.6333 360° North 118 136 800 -600 Descending Tampa TRACON
Mon 10:43:35 AM 27.7500 -82.6333 360° North 85 98 400 -400 Descending Tampa TRACON

Login

Don't have an account? Register now (free) for customized features, flight alerts, and more!